Time;durP1;ratioP1;P1;durP2;ratioP2;P2;SDS_P1;SDS_P2;PMS_P1;PMS_P2;Temp;Humidity;BMP_temperature;BMP_pressure;BME280_temperature;BME280_humidity;BME280_pressure;Samples;Min_cycle;Max_cycle;Signal;HPM_P1;HPM_P2
2022/07/30 00:01:17;;;;;;;5.77;5.37;;;17.40;99.90;;;;;;4979195;28;20455;-84
2022/07/30 00:03:46;;;;;;;7.07;6.50;;;17.40;99.90;;;;;;4979345;28;20455;-84
2022/07/30 00:06:14;;;;;;;6.10;5.70;;;17.20;99.90;;;;;;4978403;28;20481;-84
2022/07/30 00:08:43;;;;;;;6.50;5.27;;;17.10;99.90;;;;;;4979195;28;20482;-84
2022/07/30 00:11:10;;;;;;;5.60;5.30;;;17.10;99.90;;;;;;4982591;28;20454;-83
2022/07/30 00:13:37;;;;;;;5.07;4.63;;;17.10;99.90;;;;;;4982911;28;20532;-84
2022/07/30 00:16:04;;;;;;;5.13;4.80;;;17.20;99.90;;;;;;4983416;28;20458;-83
2022/07/30 00:18:36;;;;;;;5.47;5.07;;;17.20;99.90;;;;;;4990671;28;20471;-82
2022/07/30 00:21:03;;;;;;;5.30;5.00;;;17.30;99.90;;;;;;4996382;28;20527;-83
2022/07/30 00:23:35;;;;;;;8.43;5.47;;;17.30;99.90;;;;;;4996198;28;20446;-83
2022/07/30 00:26:06;;;;;;;5.97;5.00;;;17.30;99.90;;;;;;4996764;28;20487;-82
2022/07/30 00:28:35;;;;;;;5.10;4.80;;;17.30;99.90;;;;;;4996752;28;20501;-82
2022/07/30 00:31:02;;;;;;;5.93;5.43;;;17.40;99.90;;;;;;4996677;28;20456;-82
2022/07/30 00:33:29;;;;;;;5.93;5.53;;;17.40;99.90;;;;;;4983564;28;20462;-84
2022/07/30 00:35:56;;;;;;;6.07;5.57;;;17.40;99.90;;;;;;4982510;28;20960;-83
2022/07/30 00:38:22;;;;;;;5.27;4.87;;;17.40;99.90;;;;;;4982781;28;20562;-84
2022/07/30 00:40:50;;;;;;;5.60;5.03;;;17.50;99.90;;;;;;4981951;28;20479;-84
2022/07/30 00:43:18;;;;;;;6.90;5.33;;;17.50;99.90;;;;;;4982512;28;20820;-84
2022/07/30 00:45:45;;;;;;;6.10;5.40;;;17.60;99.90;;;;;;4982425;28;20510;-83
2022/07/30 00:48:12;;;;;;;5.97;5.23;;;17.60;99.90;;;;;;4981825;28;20547;-83
2022/07/30 00:50:40;;;;;;;5.50;5.10;;;17.60;99.90;;;;;;4982101;28;20459;-84
2022/07/30 00:53:07;;;;;;;5.83;5.33;;;17.60;99.90;;;;;;4982319;28;20462;-84
2022/07/30 00:55:35;;;;;;;5.37;4.87;;;17.70;99.90;;;;;;4981774;28;20447;-84
2022/07/30 00:58:03;;;;;;;5.20;4.73;;;17.80;99.90;;;;;;4981935;28;20974;-84
2022/07/30 01:00:29;;;;;;;5.80;5.17;;;17.80;99.90;;;;;;4982276;28;21009;-84
2022/07/30 01:02:56;;;;;;;5.87;5.47;;;17.80;99.90;;;;;;4981392;28;20455;-83
2022/07/30 01:05:23;;;;;;;6.27;5.87;;;17.80;99.90;;;;;;4981617;28;20481;-84
2022/07/30 01:07:50;;;;;;;5.83;5.40;;;17.80;99.90;;;;;;4981868;28;20463;-84
2022/07/30 01:10:17;;;;;;;6.00;5.53;;;17.80;99.90;;;;;;4981785;28;20544;-84
2022/07/30 01:12:45;;;;;;;6.43;5.93;;;17.80;99.90;;;;;;4981715;28;20469;-84
2022/07/30 01:15:14;;;;;;;6.10;5.70;;;17.70;99.90;;;;;;4981374;28;21137;-84
2022/07/30 01:17:40;;;;;;;5.83;5.40;;;17.70;99.90;;;;;;4981529;28;20455;-84
2022/07/30 01:20:18;;;;;;;5.80;5.37;;;17.60;99.90;;;;;;4980887;28;20486;-83
2022/07/30 01:22:54;;;;;;;6.37;5.97;;;17.60;99.90;;;;;;4981810;28;20459;-83
2022/07/30 01:25:30;;;;;;;7.17;5.90;;;17.50;99.90;;;;;;4981058;28;20465;-83
2022/07/30 01:28:03;;;;;;;5.67;5.17;;;17.50;99.90;;;;;;4981135;28;20482;-84
2022/07/30 01:30:35;;;;;;;6.23;5.73;;;17.50;99.90;;;;;;4981488;28;20466;-84
2022/07/30 01:33:04;;;;;;;6.00;5.60;;;17.50;99.90;;;;;;4980965;28;20471;-84
2022/07/30 01:35:33;;;;;;;7.30;6.60;;;17.40;99.90;;;;;;4982127;28;21061;-84
2022/07/30 01:38:01;;;;;;;6.97;6.20;;;17.50;99.90;;;;;;4981127;28;20467;-84
2022/07/30 01:40:29;;;;;;;6.53;6.00;;;17.50;99.90;;;;;;4981356;28;20486;-84
2022/07/30 01:42:58;;;;;;;6.50;5.93;;;17.50;99.90;;;;;;4981590;28;20459;-84
2022/07/30 01:45:29;;;;;;;6.00;5.60;;;17.60;99.90;;;;;;4980887;28;20459;-84
2022/07/30 01:47:59;;;;;;;6.80;6.40;;;17.70;99.90;;;;;;4981026;28;20676;-84
2022/07/30 01:50:28;;;;;;;6.87;6.27;;;17.80;99.90;;;;;;4981016;28;20462;-84
2022/07/30 01:52:57;;;;;;;6.87;6.17;;;17.70;99.90;;;;;;4982111;28;20465;-84
2022/07/30 01:55:32;;;;;;;7.63;6.93;;;17.70;99.90;;;;;;4980832;28;20455;-84
2022/07/30 01:58:00;;;;;;;6.67;6.00;;;17.80;99.90;;;;;;4981481;28;20435;-84
2022/07/30 02:00:37;;;;;;;6.87;6.30;;;17.70;99.90;;;;;;4981506;28;20514;-84
2022/07/30 02:03:05;;;;;;;6.40;6.00;;;17.60;99.90;;;;;;4981610;28;20439;-84
2022/07/30 02:05:34;;;;;;;6.20;5.70;;;17.70;99.90;;;;;;4980526;28;20462;-83
2022/07/30 02:08:07;;;;;;;6.57;6.00;;;17.60;99.90;;;;;;4980841;28;20456;-84
2022/07/30 02:10:36;;;;;;;6.00;5.60;;;17.70;99.90;;;;;;4980501;28;20490;-84
2022/07/30 02:13:07;;;;;;;6.30;5.80;;;17.70;99.90;;;;;;4980896;28;20462;-84
2022/07/30 02:15:41;;;;;;;7.00;6.50;;;17.80;99.90;;;;;;4980411;28;20459;-84
2022/07/30 02:18:13;;;;;;;6.33;5.97;;;17.70;99.90;;;;;;4981496;28;20655;-84
2022/07/30 02:20:46;;;;;;;6.73;6.23;;;17.70;99.90;;;;;;4980767;28;20514;-84
2022/07/30 02:23:19;;;;;;;6.97;6.37;;;17.60;99.90;;;;;;4980324;28;20460;-84
2022/07/30 02:25:50;;;;;;;6.53;5.93;;;17.60;99.90;;;;;;4981029;28;20778;-83
2022/07/30 02:28:21;;;;;;;7.07;6.37;;;17.50;99.90;;;;;;4980549;28;20462;-83
2022/07/30 02:30:51;;;;;;;7.27;6.77;;;17.40;99.90;;;;;;4978488;28;20467;-83
2022/07/30 02:33:26;;;;;;;6.93;6.53;;;17.40;99.90;;;;;;4977979;28;20462;-84
2022/07/30 02:35:55;;;;;;;7.17;6.67;;;17.40;99.90;;;;;;4978019;28;20536;-83
2022/07/30 02:38:24;;;;;;;7.80;7.20;;;17.30;99.90;;;;;;4978517;28;20854;-84
2022/07/30 02:40:53;;;;;;;6.17;5.67;;;17.00;99.90;;;;;;4978507;28;20518;-83
2022/07/30 02:43:36;;;;;;;8.40;7.60;;;17.10;99.90;;;;;;4977375;28;20457;-84
2022/07/30 02:46:06;;;;;;;8.87;8.23;;;17.10;99.90;;;;;;4977596;28;20458;-84
2022/07/30 02:48:39;;;;;;;7.23;6.63;;;17.10;99.90;;;;;;4977832;28;20846;-84
2022/07/30 02:51:08;;;;;;;6.90;6.20;;;17.00;99.90;;;;;;4978105;28;20823;-84
2022/07/30 02:53:38;;;;;;;8.37;7.77;;;17.00;99.90;;;;;;4977536;28;20538;-83
2022/07/30 02:56:09;;;;;;;7.53;6.93;;;16.90;99.90;;;;;;4977654;28;20459;-84
2022/07/30 02:58:39;;;;;;;7.93;7.13;;;16.80;99.90;;;;;;4977768;28;20988;-84
2022/07/30 03:01:07;;;;;;;6.13;5.73;;;16.90;99.90;;;;;;4977755;28;20987;-84
2022/07/30 03:03:35;;;;;;;7.70;7.20;;;16.90;99.90;;;;;;4978160;28;20451;-84
2022/07/30 03:06:07;;;;;;;7.30;6.80;;;16.90;99.90;;;;;;4978059;28;20454;-83
2022/07/30 03:08:35;;;;;;;7.70;7.20;;;16.90;99.90;;;;;;4977627;28;20983;-84
2022/07/30 03:11:03;;;;;;;7.47;6.97;;;16.80;99.90;;;;;;4977378;28;20450;-83
2022/07/30 03:13:29;;;;;;;6.87;6.37;;;16.70;99.90;;;;;;4977716;28;20462;-83
2022/07/30 03:16:04;;;;;;;8.23;7.53;;;16.70;99.90;;;;;;4977821;28;20921;-84
2022/07/30 03:18:35;;;;;;;8.23;7.43;;;16.70;99.90;;;;;;4977998;28;20970;-84
2022/07/30 03:21:03;;;;;;;7.57;7.07;;;16.70;99.90;;;;;;4977701;28;20493;-83
2022/07/30 03:23:35;;;;;;;9.53;8.90;;;16.70;99.90;;;;;;4977728;28;20454;-83
2022/07/30 03:26:03;;;;;;;7.47;6.87;;;16.70;99.90;;;;;;4977338;28;20458;-83
2022/07/30 03:28:32;;;;;;;8.60;8.00;;;16.60;99.90;;;;;;4976890;28;21035;-83
2022/07/30 03:31:01;;;;;;;9.33;8.70;;;16.50;99.90;;;;;;4977809;28;20442;-84
2022/07/30 03:33:29;;;;;;;10.20;9.30;;;16.30;99.90;;;;;;4977541;28;20553;-84
2022/07/30 03:35:58;;;;;;;8.33;7.63;;;16.10;99.90;;;;;;4977117;28;20459;-83
2022/07/30 03:38:29;;;;;;;9.80;8.90;;;16.00;99.90;;;;;;4977428;28;20485;-84
2022/07/30 03:40:58;;;;;;;9.00;8.40;;;16.00;99.90;;;;;;4958574;29;20494;-83
2022/07/30 03:43:26;;;;;;;9.20;8.33;;;16.00;99.90;;;;;;4960164;28;20463;-83
2022/07/30 03:45:54;;;;;;;8.90;8.20;;;16.10;99.90;;;;;;4980694;28;20466;-84
2022/07/30 03:48:23;;;;;;;9.07;8.20;;;16.00;99.90;;;;;;4980498;28;20476;-83
2022/07/30 03:50:51;;;;;;;8.27;7.63;;;15.90;99.90;;;;;;4981298;28;20457;-83
2022/07/30 03:53:24;;;;;;;8.00;7.43;;;15.90;99.90;;;;;;4980025;28;20461;-84
2022/07/30 03:55:51;;;;;;;8.70;7.83;;;16.00;99.90;;;;;;4981142;28;20538;-83
2022/07/30 03:58:18;;;;;;;8.47;7.87;;;16.00;99.90;;;;;;4980920;28;20484;-84
2022/07/30 04:00:49;;;;;;;9.80;7.83;;;16.10;99.90;;;;;;4980162;28;20998;-84
2022/07/30 04:03:26;;;;;;;10.30;9.30;;;16.20;99.90;;;;;;4980652;28;20948;-84
2022/07/30 04:05:53;;;;;;;8.17;7.47;;;16.30;99.90;;;;;;4981309;28;20455;-83
2022/07/30 04:08:20;;;;;;;8.10;7.50;;;16.40;99.90;;;;;;4980185;28;20482;-84
2022/07/30 04:10:47;;;;;;;8.20;7.50;;;16.40;99.90;;;;;;4980464;28;20477;-84
2022/07/30 04:13:13;;;;;;;9.50;8.70;;;16.50;99.90;;;;;;4980359;28;20837;-84
2022/07/30 04:15:46;;;;;;;8.97;8.10;;;16.50;99.90;;;;;;4979989;28;20458;-84
2022/07/30 04:18:16;;;;;;;8.70;8.00;;;16.60;99.90;;;;;;4979854;28;20474;-83
2022/07/30 04:20:47;;;;;;;9.80;8.97;;;16.60;99.90;;;;;;4980184;28;20992;-83
2022/07/30 04:23:22;;;;;;;9.17;8.37;;;16.60;99.90;;;;;;4981009;28;20874;-84
2022/07/30 04:25:50;;;;;;;8.20;7.60;;;16.60;99.90;;;;;;4980452;28;20465;-83
2022/07/30 04:28:19;;;;;;;9.37;8.47;;;16.60;99.90;;;;;;4979410;28;21136;-83
2022/07/30 04:30:46;;;;;;;8.77;8.03;;;16.60;99.90;;;;;;4980391;28;20461;-83
2022/07/30 04:33:16;;;;;;;8.20;7.60;;;16.60;99.90;;;;;;4980052;28;20948;-84
2022/07/30 04:35:47;;;;;;;8.67;8.17;;;16.60;99.90;;;;;;4960884;28;20517;-82
2022/07/30 04:38:13;;;;;;;8.90;8.20;;;16.60;99.90;;;;;;4961115;28;20478;-83
2022/07/30 04:40:41;;;;;;;9.30;8.40;;;16.70;99.90;;;;;;4971635;28;20501;-83
2022/07/30 04:43:08;;;;;;;9.87;9.00;;;16.70;99.90;;;;;;4980303;28;20839;-83
2022/07/30 04:45:35;;;;;;;9.77;8.87;;;16.70;99.90;;;;;;4990431;28;20457;-81
2022/07/30 04:48:01;;;;;;;9.60;8.80;;;16.70;99.90;;;;;;4997549;28;20473;-81
2022/07/30 04:50:38;;;;;;;9.70;8.90;;;16.70;99.90;;;;;;4997370;28;20445;-81
2022/07/30 04:53:06;;;;;;;9.47;8.87;;;16.70;99.90;;;;;;4998121;28;20453;-81
2022/07/30 04:55:35;;;;;;;9.57;8.67;;;16.70;99.90;;;;;;4996734;28;20529;-81
2022/07/30 04:58:03;;;;;;;9.93;9.13;;;16.70;99.90;;;;;;4997969;28;20458;-81
2022/07/30 05:00:38;;;;;;;10.40;9.70;;;16.80;99.90;;;;;;4997381;28;20503;-81
2022/07/30 05:03:06;;;;;;;8.50;7.80;;;16.80;99.90;;;;;;4992411;28;20448;-81
2022/07/30 05:05:33;;;;;;;10.23;9.37;;;16.80;99.90;;;;;;4992057;28;20450;-82
2022/07/30 05:08:01;;;;;;;9.63;8.93;;;16.90;99.90;;;;;;4991626;28;20456;-80
2022/07/30 05:10:32;;;;;;;10.10;9.40;;;16.90;99.90;;;;;;4991995;28;20450;-80
2022/07/30 05:12:58;;;;;;;10.77;9.87;;;16.80;99.90;;;;;;4992310;28;20434;-81
2022/07/30 05:15:25;;;;;;;11.60;10.77;;;16.80;99.90;;;;;;4992359;28;20458;-81
2022/07/30 05:17:52;;;;;;;11.33;10.40;;;16.90;99.90;;;;;;4991673;28;20466;-81
2022/07/30 05:20:18;;;;;;;10.00;9.10;;;16.90;99.90;;;;;;4991502;28;20957;-82
2022/07/30 05:22:45;;;;;;;10.00;9.13;;;16.90;99.90;;;;;;4991692;28;20450;-82
2022/07/30 05:25:12;;;;;;;9.43;8.63;;;17.00;99.90;;;;;;4972276;29;20462;-81
2022/07/30 05:27:44;;;;;;;8.60;7.70;;;17.10;99.90;;;;;;4973373;28;20455;-83
2022/07/30 05:30:12;;;;;;;8.37;7.83;;;17.00;99.90;;;;;;4980283;28;20458;-83
2022/07/30 05:32:38;;;;;;;7.43;6.93;;;17.00;99.90;;;;;;4980437;28;20466;-81
2022/07/30 05:35:06;;;;;;;7.83;7.23;;;17.00;99.90;;;;;;4977170;28;20970;-81
2022/07/30 05:37:33;;;;;;;10.30;8.13;;;17.10;99.90;;;;;;4977558;28;20458;-83
2022/07/30 05:40:00;;;;;;;7.90;7.20;;;17.10;99.90;;;;;;4980909;28;20479;-83
2022/07/30 05:42:27;;;;;;;7.87;7.27;;;17.20;99.90;;;;;;4980737;28;20501;-83
2022/07/30 05:44:55;;;;;;;8.47;7.87;;;17.20;99.90;;;;;;4981678;28;20462;-82
2022/07/30 05:47:21;;;;;;;8.70;7.90;;;17.30;99.90;;;;;;4980497;28;20462;-82
2022/07/30 05:49:48;;;;;;;8.77;8.07;;;17.40;99.90;;;;;;4982571;28;20499;-83
2022/07/30 05:52:15;;;;;;;8.07;7.47;;;17.50;99.90;;;;;;4993739;28;20454;-80
2022/07/30 05:54:42;;;;;;;8.60;7.93;;;17.60;99.90;;;;;;4997183;28;20454;-80
2022/07/30 05:57:08;;;;;;;9.50;8.80;;;17.70;99.90;;;;;;4998040;28;20447;-81
2022/07/30 05:59:35;;;;;;;8.30;7.60;;;17.80;99.90;;;;;;4997655;28;20463;-80
2022/07/30 06:02:05;;;;;;;8.47;7.63;;;17.90;99.90;;;;;;4994700;28;20489;-80
2022/07/30 06:04:34;;;;;;;7.50;6.87;;;18.00;99.90;;;;;;4982219;28;20459;-78
2022/07/30 06:07:00;;;;;;;8.27;7.67;;;18.10;99.90;;;;;;4980465;28;20462;-78
2022/07/30 06:09:27;;;;;;;12.00;7.80;;;18.20;99.90;;;;;;4983221;28;20478;-78
2022/07/30 06:11:54;;;;;;;9.13;7.83;;;18.40;99.90;;;;;;4983161;28;20448;-82
2022/07/30 06:14:20;;;;;;;8.83;8.10;;;18.40;99.90;;;;;;4979317;28;20459;-79
2022/07/30 06:16:47;;;;;;;8.87;8.17;;;18.40;99.90;;;;;;4978962;28;20961;-84
2022/07/30 06:19:15;;;;;;;7.87;7.27;;;18.60;99.90;;;;;;4982169;28;20478;-82
2022/07/30 06:21:42;;;;;;;8.00;7.40;;;18.60;99.90;;;;;;4982141;28;21000;-83
2022/07/30 06:24:09;;;;;;;8.27;7.67;;;18.70;99.90;;;;;;4982742;28;20466;-84
2022/07/30 06:26:36;;;;;;;10.20;9.30;;;18.70;99.90;;;;;;4982196;28;20467;-83
2022/07/30 06:29:02;;;;;;;8.37;7.60;;;18.80;99.90;;;;;;4981548;28;20495;-84
2022/07/30 06:31:29;;;;;;;7.87;7.10;;;18.90;99.90;;;;;;4981014;28;20449;-85
2022/07/30 06:33:56;;;;;;;9.57;8.77;;;18.90;99.90;;;;;;4982300;28;20459;-84
2022/07/30 06:36:25;;;;;;;9.00;8.40;;;19.10;99.90;;;;;;4982371;28;20478;-84
2022/07/30 06:38:51;;;;;;;8.80;8.00;;;19.20;99.90;;;;;;4981823;28;20479;-84
2022/07/30 06:41:18;;;;;;;8.13;7.33;;;19.30;99.90;;;;;;4981568;28;21021;-85
2022/07/30 06:43:45;;;;;;;8.70;7.90;;;19.40;99.90;;;;;;4982353;28;20466;-84
2022/07/30 06:46:11;;;;;;;8.53;7.93;;;19.50;99.90;;;;;;4982857;28;20455;-84
2022/07/30 06:48:38;;;;;;;10.03;7.33;;;19.60;99.90;;;;;;4981622;28;20476;-83
2022/07/30 06:51:05;;;;;;;8.83;8.07;;;19.80;99.90;;;;;;4982091;28;20503;-82
2022/07/30 06:53:33;;;;;;;8.27;7.57;;;19.80;99.90;;;;;;4980831;28;20454;-83
2022/07/30 06:56:00;;;;;;;8.20;7.50;;;19.80;99.90;;;;;;4980987;28;20788;-83
2022/07/30 06:58:28;;;;;;;10.57;6.90;;;19.90;99.90;;;;;;4979797;28;20479;-81
2022/07/30 07:00:54;;;;;;;8.10;7.40;;;20.00;99.90;;;;;;4977260;28;20499;-83
2022/07/30 07:03:21;;;;;;;9.63;8.83;;;20.00;99.90;;;;;;4980061;28;20853;-82
2022/07/30 07:05:48;;;;;;;9.60;8.60;;;20.10;99.90;;;;;;4979750;28;20456;-82
2022/07/30 07:08:14;;;;;;;8.37;7.67;;;20.10;99.90;;;;;;4979021;28;20477;-83
2022/07/30 07:10:42;;;;;;;9.43;8.53;;;20.10;99.90;;;;;;4975911;28;20478;-83
2022/07/30 07:13:09;;;;;;;6.87;6.17;;;20.20;99.90;;;;;;4975585;28;20453;-81
2022/07/30 07:15:36;;;;;;;8.80;8.03;;;20.20;99.90;;;;;;4975531;28;20803;-80
2022/07/30 07:18:03;;;;;;;8.53;7.83;;;20.30;99.90;;;;;;4976570;28;20957;-82
2022/07/30 07:20:30;;;;;;;9.23;7.30;;;20.30;99.90;;;;;;4979352;28;20470;-81
2022/07/30 07:22:57;;;;;;;8.37;7.53;;;20.50;99.90;;;;;;4979052;28;21047;-83
2022/07/30 07:25:24;;;;;;;8.73;8.03;;;20.60;99.90;;;;;;4979332;28;20449;-81
2022/07/30 07:27:52;;;;;;;8.00;7.30;;;20.60;99.90;;;;;;4979936;28;20476;-80
2022/07/30 07:30:19;;;;;;;7.27;6.67;;;20.70;99.90;;;;;;4979192;28;20995;-81
2022/07/30 07:32:46;;;;;;;7.17;6.57;;;20.80;99.90;;;;;;4979436;28;20460;-82
2022/07/30 07:35:13;;;;;;;6.83;6.33;;;20.90;99.90;;;;;;4979024;28;20460;-82
2022/07/30 07:37:40;;;;;;;7.70;7.17;;;20.90;99.70;;;;;;4979503;28;20455;-81
2022/07/30 07:40:08;;;;;;;9.37;8.50;;;20.90;98.80;;;;;;4979525;28;20481;-81
2022/07/30 07:42:35;;;;;;;8.00;7.40;;;21.00;98.30;;;;;;4983051;28;20501;-82
2022/07/30 07:45:03;;;;;;;6.80;6.20;;;21.00;97.90;;;;;;4983795;28;20453;-85
2022/07/30 07:47:30;;;;;;;7.30;6.73;;;21.10;98.10;;;;;;4984592;28;20905;-85
2022/07/30 07:49:56;;;;;;;8.07;6.87;;;21.20;97.90;;;;;;4984913;28;20478;-85
2022/07/30 07:52:23;;;;;;;6.17;5.77;;;21.30;98.30;;;;;;4985439;28;20461;-86
2022/07/30 07:54:50;;;;;;;5.93;5.40;;;21.30;96.50;;;;;;4986915;28;20453;-85
2022/07/30 07:57:16;;;;;;;7.17;5.40;;;21.50;97.60;;;;;;4985886;28;20454;-85
2022/07/30 07:59:43;;;;;;;5.80;5.40;;;21.60;97.20;;;;;;4985282;28;20483;-85
2022/07/30 08:02:11;;;;;;;6.30;5.80;;;21.70;96.00;;;;;;4984533;28;20498;-85
2022/07/30 08:04:38;;;;;;;6.20;5.70;;;21.70;95.40;;;;;;4985216;28;20450;-85
2022/07/30 08:07:05;;;;;;;6.60;6.10;;;21.80;94.80;;;;;;4985055;28;20458;-83
2022/07/30 08:09:31;;;;;;;5.37;4.80;;;21.90;93.70;;;;;;4984104;28;20478;-85
2022/07/30 08:11:59;;;;;;;4.50;4.20;;;21.90;93.70;;;;;;4984786;28;20448;-85
2022/07/30 08:14:25;;;;;;;5.77;5.37;;;22.00;94.60;;;;;;4982141;28;20455;-84
2022/07/30 08:16:52;;;;;;;5.83;5.43;;;22.10;93.30;;;;;;4984724;28;20948;-85
2022/07/30 08:19:20;;;;;;;5.83;5.43;;;22.20;93.40;;;;;;4984566;28;20519;-83
2022/07/30 08:21:47;;;;;;;5.43;4.93;;;22.30;92.80;;;;;;4983484;28;20568;-83
2022/07/30 08:24:13;;;;;;;7.07;6.13;;;22.40;92.80;;;;;;4983508;28;20447;-84
2022/07/30 08:26:40;;;;;;;6.00;5.60;;;22.60;92.20;;;;;;4983612;28;20451;-84
2022/07/30 08:29:07;;;;;;;6.90;6.27;;;22.60;92.10;;;;;;4980256;28;20801;-82
2022/07/30 08:31:34;;;;;;;5.00;4.70;;;22.70;90.90;;;;;;4977443;28;20452;-82
2022/07/30 08:34:00;;;;;;;5.07;4.80;;;22.80;91.60;;;;;;4977844;28;20455;-81
2022/07/30 08:36:28;;;;;;;5.17;4.87;;;22.90;92.10;;;;;;4977624;28;20451;-82
2022/07/30 08:38:55;;;;;;;5.87;5.37;;;23.10;91.50;;;;;;4978102;28;20475;-82
2022/07/30 08:41:24;;;;;;;6.40;5.50;;;23.20;91.20;;;;;;4977779;28;20448;-83
2022/07/30 08:43:51;;;;;;;6.37;5.90;;;23.40;90.50;;;;;;4977087;28;20452;-83
2022/07/30 08:46:18;;;;;;;5.97;5.47;;;23.50;90.40;;;;;;4977812;28;20453;-84
2022/07/30 08:48:46;;;;;;;5.30;4.90;;;23.50;90.10;;;;;;4974409;28;20479;-84
2022/07/30 08:51:15;;;;;;;5.30;4.90;;;23.60;90.00;;;;;;4976995;28;20495;-84
2022/07/30 08:53:43;;;;;;;6.90;4.97;;;23.70;89.60;;;;;;4986308;28;20576;-83
2022/07/30 08:56:11;;;;;;;4.40;4.10;;;23.80;87.20;;;;;;4988368;28;20451;-84
2022/07/30 08:58:38;;;;;;;6.53;4.73;;;24.00;89.50;;;;;;4984822;28;20468;-84
2022/07/30 09:01:05;;;;;;;5.00;4.70;;;24.10;87.90;;;;;;4985270;28;20459;-84
2022/07/30 09:03:33;;;;;;;5.50;5.13;;;24.20;85.80;;;;;;4978026;28;20488;-84
2022/07/30 09:06:01;;;;;;;8.33;7.63;;;24.10;85.20;;;;;;4978601;28;20827;-84
2022/07/30 09:08:27;;;;;;;5.60;5.20;;;24.10;85.30;;;;;;4977765;28;20559;-84
2022/07/30 09:10:56;;;;;;;5.73;5.20;;;24.00;86.20;;;;;;4978759;28;20453;-87
2022/07/30 09:13:27;;;;;;;4.47;4.07;;;23.90;84.70;;;;;;4982051;28;20533;-84
2022/07/30 09:15:55;;;;;;;5.03;4.57;;;23.70;86.50;;;;;;4981974;28;20441;-84
2022/07/30 09:18:30;;;;;;;4.80;4.50;;;23.60;85.00;;;;;;4981903;28;20476;-81
2022/07/30 09:20:59;;;;;;;4.77;4.47;;;23.70;84.40;;;;;;4978357;28;20568;-81
2022/07/30 09:23:26;;;;;;;5.27;4.90;;;23.90;83.70;;;;;;4978015;28;20533;-81
2022/07/30 09:25:53;;;;;;;4.80;4.40;;;24.00;84.10;;;;;;4978300;28;20908;-85
2022/07/30 09:28:29;;;;;;;6.10;5.07;;;24.00;84.50;;;;;;4980810;28;20504;-83
2022/07/30 09:30:56;;;;;;;4.03;3.77;;;24.10;83.40;;;;;;4981487;28;20433;-82
2022/07/30 09:33:35;;;;;;;6.07;5.57;;;24.10;81.30;;;;;;4981616;28;20457;-81
2022/07/30 09:36:03;;;;;;;4.90;4.60;;;24.00;80.60;;;;;;4986108;28;20476;-82
2022/07/30 09:38:41;;;;;;;4.47;4.17;;;23.90;80.30;;;;;;4982948;28;20496;-82
2022/07/30 09:41:07;;;;;;;4.57;4.07;;;24.00;81.50;;;;;;4981250;28;20452;-82
2022/07/30 09:43:44;;;;;;;4.17;3.87;;;24.20;81.00;;;;;;4980350;28;20482;-82
2022/07/30 09:46:11;;;;;;;5.80;5.30;;;24.20;79.80;;;;;;4978514;28;20445;-82
2022/07/30 09:48:38;;;;;;;5.80;3.90;;;24.10;80.00;;;;;;4977814;28;20496;-82
2022/07/30 09:51:05;;;;;;;5.20;4.13;;;24.10;80.80;;;;;;4978235;28;20456;-81
2022/07/30 09:53:31;;;;;;;4.40;4.10;;;23.90;79.60;;;;;;4978029;28;20444;-82
2022/07/30 09:55:59;;;;;;;4.47;4.17;;;23.60;78.50;;;;;;4978455;28;20457;-81
2022/07/30 09:58:37;;;;;;;12.43;4.23;;;23.60;80.90;;;;;;4977687;28;20467;-82
2022/07/30 10:01:05;;;;;;;4.13;3.83;;;23.70;79.70;;;;;;4977979;28;20456;-82
2022/07/30 10:03:32;;;;;;;4.00;3.73;;;23.80;80.30;;;;;;4977631;28;20571;-81
2022/07/30 10:06:00;;;;;;;4.03;3.80;;;23.90;79.60;;;;;;4976834;28;20461;-81
2022/07/30 10:08:39;;;;;;;4.43;3.93;;;24.10;78.10;;;;;;4977421;28;21130;-81
2022/07/30 10:11:06;;;;;;;4.60;4.30;;;24.30;77.40;;;;;;4978161;28;20468;-81
2022/07/30 10:13:34;;;;;;;4.80;3.67;;;24.50;76.90;;;;;;4977785;28;20948;-81
2022/07/30 10:16:01;;;;;;;3.63;3.43;;;24.80;79.60;;;;;;4977426;28;20455;-81
2022/07/30 10:18:30;;;;;;;3.53;3.33;;;25.20;79.10;;;;;;4976770;28;20486;-81
2022/07/30 10:20:59;;;;;;;3.67;3.37;;;25.40;74.50;;;;;;4977802;28;20449;-81
2022/07/30 10:23:28;;;;;;;4.40;3.70;;;25.30;74.90;;;;;;4977256;28;21027;-81
2022/07/30 10:25:55;;;;;;;3.60;3.40;;;25.10;75.40;;;;;;4977152;28;20465;-81
2022/07/30 10:28:23;;;;;;;3.17;3.07;;;24.90;73.50;;;;;;4977256;28;20491;-81
2022/07/30 10:30:50;;;;;;;3.70;3.50;;;24.70;72.80;;;;;;4977078;28;20522;-81
2022/07/30 10:33:18;;;;;;;4.43;3.63;;;24.60;73.70;;;;;;4976699;28;20454;-81
2022/07/30 10:35:46;;;;;;;4.03;3.70;;;24.50;75.10;;;;;;4976891;28;20458;-81
2022/07/30 10:38:15;;;;;;;3.50;3.30;;;24.70;73.80;;;;;;4976479;28;20514;-81
2022/07/30 10:40:48;;;;;;;4.23;4.00;;;25.00;74.20;;;;;;4976921;28;20451;-81
2022/07/30 10:43:41;;;;;;;4.03;3.73;;;25.10;73.50;;;;;;4977144;28;20471;-81
2022/07/30 10:46:18;;;;;;;4.27;3.97;;;25.10;73.40;;;;;;4976442;28;20452;-80
2022/07/30 10:48:45;;;;;;;4.37;3.97;;;25.40;76.20;;;;;;4976389;28;20479;-80
2022/07/30 10:51:13;;;;;;;3.13;2.93;;;25.70;72.80;;;;;;4976597;28;20513;-81
2022/07/30 10:53:44;;;;;;;3.73;3.17;;;25.90;70.70;;;;;;4975337;28;20822;-80
2022/07/30 10:56:13;;;;;;;3.67;3.37;;;26.20;72.50;;;;;;4975911;28;20460;-81
2022/07/30 10:59:01;;;;;;;4.40;4.10;;;26.20;69.80;;;;;;4976256;28;20468;-80
2022/07/30 11:02:08;;;;;;;2.77;2.67;;;26.40;70.20;;;;;;4976003;28;20450;-80
2022/07/30 11:04:34;;;;;;;6.33;3.50;;;26.40;67.80;;;;;;4976202;28;20794;-80
2022/07/30 11:07:31;;;;;;;4.23;3.83;;;26.50;68.10;;;;;;4975642;28;20463;-80
2022/07/30 11:10:00;;;;;;;3.43;3.20;;;26.40;66.70;;;;;;4976097;28;20489;-80
2022/07/30 11:12:55;;;;;;;6.23;5.63;;;26.80;68.00;;;;;;4976088;28;20462;-80
2022/07/30 11:15:22;;;;;;;2.90;2.70;;;27.70;66.90;;;;;;4976317;28;20434;-80
2022/07/30 11:18:07;;;;;;;3.40;3.10;;;27.70;62.10;;;;;;4975927;28;20457;-80
2022/07/30 11:20:35;;;;;;;3.37;3.17;;;27.50;61.00;;;;;;4974841;28;20458;-80
2022/07/30 11:23:38;;;;;;;3.10;2.90;;;26.90;61.60;;;;;;4975943;28;20493;-80
2022/07/30 11:26:05;;;;;;;3.40;3.20;;;27.10;62.50;;;;;;4970540;28;20547;-81
2022/07/30 11:28:39;;;;;;;3.27;3.07;;;26.90;61.80;;;;;;4975240;28;20561;-80
2022/07/30 11:31:30;;;;;;;2.97;2.77;;;26.70;62.50;;;;;;4975793;28;20435;-80
2022/07/30 11:34:27;;;;;;;3.60;3.37;;;26.40;62.10;;;;;;4975280;28;20494;-80
2022/07/30 11:37:05;;;;;;;3.27;3.07;;;26.10;63.10;;;;;;4975876;28;20439;-80
2022/07/30 11:40:05;;;;;;;6.07;3.27;;;25.80;63.30;;;;;;4974917;28;21046;-80
2022/07/30 11:42:34;;;;;;;3.70;2.57;;;25.80;64.50;;;;;;4974125;28;20483;-80
2022/07/30 11:45:22;;;;;;;3.07;2.80;;;26.10;68.30;;;;;;4974566;28;20452;-81
2022/07/30 11:47:51;;;;;;;3.27;3.07;;;26.80;62.90;;;;;;4972335;28;20969;-80
2022/07/30 11:50:18;;;;;;;2.50;2.30;;;27.00;61.90;;;;;;4975960;28;20462;-82
2022/07/30 11:52:49;;;;;;;3.00;2.90;;;27.70;61.90;;;;;;4974666;28;20928;-80
2022/07/30 11:55:22;;;;;;;2.93;2.73;;;28.30;58.60;;;;;;4974235;28;20455;-80
2022/07/30 11:57:50;;;;;;;2.80;2.60;;;28.70;59.20;;;;;;4974345;28;20448;-80
2022/07/30 12:00:18;;;;;;;4.27;2.73;;;28.70;57.10;;;;;;4973901;28;20459;-80
2022/07/30 12:02:45;;;;;;;3.37;3.07;;;28.80;57.60;;;;;;4973855;28;20490;-80
2022/07/30 12:05:12;;;;;;;3.33;2.80;;;28.50;56.50;;;;;;4976622;28;20463;-80
2022/07/30 12:07:38;;;;;;;3.43;2.77;;;28.00;57.00;;;;;;4978473;28;20455;-80
2022/07/30 12:10:19;;;;;;;2.93;2.47;;;27.90;58.20;;;;;;4977563;28;20551;-80
2022/07/30 12:12:46;;;;;;;2.60;2.50;;;28.00;59.50;;;;;;4980430;28;20457;-82
2022/07/30 12:18:07;;;;;;;3.57;3.37;;;28.70;58.40;;;;;;5092813;28;21108;-79
2022/07/30 12:20:35;;;;;;;2.83;2.63;;;29.20;54.70;;;;;;5075780;28;20440;-80
2022/07/30 12:23:02;;;;;;;3.40;2.83;;;28.80;54.60;;;;;;5072408;28;20448;-80
2022/07/30 12:25:29;;;;;;;3.27;3.00;;;28.20;55.30;;;;;;5087228;28;20462;-80
2022/07/30 12:27:56;;;;;;;2.33;2.23;;;28.10;56.60;;;;;;5090686;28;20445;-80
2022/07/30 12:30:23;;;;;;;2.30;2.20;;;28.50;55.80;;;;;;5092410;28;20811;-80
2022/07/30 12:32:50;;;;;;;3.07;2.83;;;29.00;54.20;;;;;;5079959;28;20964;-80
2022/07/30 12:35:18;;;;;;;3.07;2.87;;;29.60;54.20;;;;;;5079074;28;21017;-81
2022/07/30 12:38:03;;;;;;;4.00;2.53;;;30.10;53.10;;;;;;5090365;28;20509;-81
2022/07/30 12:40:31;;;;;;;2.53;2.37;;;30.20;53.80;;;;;;5091011;28;20449;-81
2022/07/30 12:42:58;;;;;;;3.20;3.10;;;30.70;53.30;;;;;;5084353;28;20447;-81
2022/07/30 12:45:30;;;;;;;3.10;2.80;;;31.00;51.70;;;;;;5076175;28;20538;-81
2022/07/30 12:47:57;;;;;;;2.73;2.53;;;31.00;50.40;;;;;;5090077;28;20798;-83
2022/07/30 12:50:28;;;;;;;3.33;2.57;;;30.70;49.90;;;;;;5090344;28;20503;-84
2022/07/30 12:52:55;;;;;;;2.63;2.43;;;30.80;49.60;;;;;;5086342;28;20454;-84
2022/07/30 12:55:43;;;;;;;2.17;2.07;;;30.20;49.20;;;;;;5091883;28;20447;-85
2022/07/30 12:58:10;;;;;;;2.60;2.20;;;30.40;51.00;;;;;;5098193;28;20500;-86
2022/07/30 13:00:54;;;;;;;2.50;2.40;;;30.70;49.50;;;;;;5088585;28;20453;-86